Stations météo

réclame
Mon MeteoGroup
Epinal, France (7173): Température de l'air & dewpoint: 17.04.2018 04:00:00 - 23.04.2018 04:00:00 (CEST)Epinal, France (7173): Vitesse du vent & gusts: 17.04.2018 04:00:00 - 23.04.2018 04:00:00 (CEST)Epinal, France (7173): Direction du vent: 17.04.2018 04:00:00 - 23.04.2018 04:00:00 (CEST)Epinal, France (7173): Ensoleillement: 17.04.2018 04:00:00 - 23.04.2018 04:00:00 (CEST)Epinal, France (7173): Quantités de précipitations: 17.04.2018 04:00:00 - 23.04.2018 04:00:00 (CEST)
Date & Time tt [°C] td [°C] ff [km/h] ff [knt] fx [km/h] fx [knt] dd sd [min] rr [mm]
23.04.2018 04:00:00 - - - - - - - - -
23.04.2018 03:00:00 13,6 9,8 0 0 5 3 N 0 0,0
23.04.2018 02:00:00 14,0 10,0 0 0 4 2 N 0 -
23.04.2018 01:00:00 15,0 10,2 0 0 4 2 N 0 0,0
23.04.2018 00:00:00 15,6 9,7 0 0 4 2 N 0 0,0
22.04.2018 23:00:00 17,4 10,0 5 3 8 4 S 0 0,0
22.04.2018 22:00:00 18,3 9,4 0 0 8 4 N 0 0,0
22.04.2018 21:00:00 20,2 9,1 4 2 15 8 S 0 0,0
22.04.2018 20:00:00 21,4 8,6 8 4 15 8 S 0 -
22.04.2018 19:00:00 22,3 8,0 8 4 28 15 SSW 0 0,0
22.04.2018 18:00:00 23,0 6,3 15 8 29 16 SW 0 0,0
22.04.2018 17:00:00 23,9 7,5 16 9 34 18 SSW 12 0,0
22.04.2018 16:00:00 24,5 7,2 18 10 39 21 SW 24 0,0
22.04.2018 15:00:00 25,2 8,2 16 9 35 19 SSW 54 0,0
22.04.2018 14:00:00 25,0 7,6 21 11 37 20 SSW 60 -
22.04.2018 13:00:00 24,2 8,6 21 11 35 19 SSW 60 0,0
22.04.2018 12:00:00 22,9 8,9 21 11 34 18 S 60 0,0
22.04.2018 11:00:00 22,3 10,4 16 9 29 16 S 60 0,0
22.04.2018 10:00:00 21,1 10,3 15 8 22 12 S 60 0,0
22.04.2018 09:00:00 18,8 10,1 13 7 18 10 S 42 0,0
22.04.2018 08:00:00 13,4 10,0 0 0 8 4 N 48 -
22.04.2018 07:00:00 9,8 8,9 0 0 4 2 N 6 0,0
22.04.2018 06:00:00 9,6 8,5 2 1 5 3 ESE 0 0,0
22.04.2018 05:00:00 9,9 8,7 0 0 5 3 N 0 0,0
22.04.2018 04:00:00 9,6 8,5 0 0 8 4 N 0 0,0
22.04.2018 03:00:00 10,9 9,2 0 0 4 2 N 0 0,0
22.04.2018 02:00:00 11,4 9,5 4 2 4 2 SE 0 -
22.04.2018 01:00:00 12,0 9,7 0 0 4 2 N 0 0,0
22.04.2018 00:00:00 13,2 10,4 4 2 4 2 ESE 0 0,0
21.04.2018 23:00:00 14,6 10,8 2 1 4 2 ESE 0 0,0
21.04.2018 22:00:00 16,4 11,3 0 0 4 2 N 0 0,0
21.04.2018 21:00:00 18,8 11,4 2 1 5 3 ESE 6 0,0
21.04.2018 20:00:00 23,7 11,4 2 1 11 6 ENE 60 -
21.04.2018 19:00:00 26,3 11,2 8 4 18 10 WNW 60 0,0
21.04.2018 18:00:00 26,1 11,4 9 5 18 10 NNW 60 0,0
21.04.2018 17:00:00 27,0 10,2 8 4 22 12 WNW 60 0,0
21.04.2018 16:00:00 26,9 9,7 11 6 37 20 WNW 60 0,0
21.04.2018 15:00:00 26,7 9,5 9 5 24 13 W 60 0,0
21.04.2018 14:00:00 26,1 10,7 5 3 22 12 SW 60 -
21.04.2018 13:00:00 25,8 10,0 5 3 15 8 WNW 60 0,0
21.04.2018 12:00:00 24,6 11,9 4 2 9 5 N 60 0,0
21.04.2018 11:00:00 22,1 12,1 2 1 8 4 NNW 60 0,2
21.04.2018 10:00:00 21,0 11,9 0 0 2 1 N 60 0,0
21.04.2018 09:00:00 15,7 10,0 2 1 4 2 N 42 0,0
21.04.2018 08:00:00 12,2 9,4 0 0 4 2 N 48 -
21.04.2018 07:00:00 8,0 7,2 0 0 4 2 N 0 0,0
21.04.2018 06:00:00 9,0 8,1 0 0 4 2 N 0 0,0
21.04.2018 05:00:00 9,4 8,5 4 2 4 2 E 0 0,0
21.04.2018 04:00:00 9,6 8,5 0 0 5 3 N 0 0,0
21.04.2018 03:00:00 10,8 9,6 4 2 9 5 ESE 0 0,0
21.04.2018 02:00:00 10,8 8,9 0 0 4 2 N 0 -
21.04.2018 01:00:00 11,9 9,8 2 1 4 2 E 0 0,0
21.04.2018 00:00:00 12,6 9,1 0 0 4 2 N 0 0,0
20.04.2018 23:00:00 13,9 10,3 2 1 4 2 ESE 0 0,0
20.04.2018 22:00:00 15,8 10,5 0 0 5 3 N 0 0,0
20.04.2018 21:00:00 18,2 10,8 2 1 8 4 E 0 0,0
20.04.2018 20:00:00 22,0 9,8 5 3 13 7 N 12 -
20.04.2018 19:00:00 24,2 11,5 11 6 18 10 NNW 60 0,0
20.04.2018 18:00:00 25,5 10,5 11 6 18 10 NNW 60 0,0
20.04.2018 17:00:00 26,4 9,7 9 5 26 14 NNW 60 0,0
20.04.2018 16:00:00 26,7 7,7 8 4 16 9 NNE 60 0,0
20.04.2018 15:00:00 26,2 8,7 9 5 16 9 NW 60 0,0
20.04.2018 14:00:00 25,8 10,4 8 4 15 8 NW 60 -
20.04.2018 13:00:00 24,8 10,7 5 3 11 6 NW 60 0,0
20.04.2018 12:00:00 23,1 10,2 8 4 11 6 NNW 60 0,0
20.04.2018 11:00:00 22,0 11,7 0 0 5 3 N 60 0,0
20.04.2018 10:00:00 19,9 10,6 0 0 4 2 N 60 0,0
20.04.2018 09:00:00 15,0 9,4 0 0 2 1 N 48 0,0
20.04.2018 08:00:00 10,9 8,8 0 0 5 3 N 48 -
20.04.2018 07:00:00 8,1 7,2 2 1 4 2 ESE 0 0,0
20.04.2018 06:00:00 8,3 7,4 0 0 4 2 N 0 0,0
20.04.2018 05:00:00 8,5 7,7 0 0 5 3 N 0 0,0
20.04.2018 04:00:00 9,0 7,9 4 2 5 3 SE 0 0,0
20.04.2018 03:00:00 9,3 8,2 0 0 5 3 N 0 0,0
20.04.2018 02:00:00 10,4 8,8 4 2 5 3 SE 0 -
20.04.2018 01:00:00 11,3 8,9 2 1 5 3 ESE 0 0,0
20.04.2018 00:00:00 12,5 8,6 2 1 8 4 ESE 0 0,0
19.04.2018 23:00:00 14,0 9,8 0 0 4 2 N 0 0,0
19.04.2018 22:00:00 16,3 10,4 0 0 4 2 N 0 0,0
19.04.2018 21:00:00 18,7 10,8 0 0 13 7 N 6 0,0
19.04.2018 20:00:00 23,6 9,2 9 5 18 10 N 60 -
19.04.2018 19:00:00 25,2 10,3 9 5 16 9 N 60 0,0
19.04.2018 18:00:00 26,3 9,2 8 4 18 10 NNW 60 0,0
19.04.2018 17:00:00 26,5 8,9 8 4 16 9 N 60 0,0
19.04.2018 16:00:00 26,6 8,1 4 2 15 8 NW 60 0,0
19.04.2018 15:00:00 25,6 10,6 9 5 16 9 NNW 60 0,0
19.04.2018 14:00:00 25,4 10,0 5 3 15 8 NW 60 -
19.04.2018 13:00:00 24,3 9,5 9 5 21 11 W 60 0,0
19.04.2018 12:00:00 23,6 9,6 9 5 18 10 SW 60 0,0
19.04.2018 11:00:00 22,5 8,9 0 0 5 3 N 60 0,0
19.04.2018 10:00:00 18,7 8,1 0 0 2 1 N 60 0,0
19.04.2018 09:00:00 14,4 7,7 0 0 5 3 N 48 0,0
19.04.2018 08:00:00 9,8 6,5 0 0 8 4 N 48 -
19.04.2018 07:00:00 6,2 5,0 2 1 4 2 ESE 0 0,0
19.04.2018 06:00:00 6,7 5,0 2 1 9 5 SE 0 0,0
19.04.2018 05:00:00 7,3 5,3 0 0 9 5 N 0 0,0
19.04.2018 04:00:00 5,9 3,7 2 1 5 3 S 0 0,0
19.04.2018 03:00:00 7,1 4,1 0 0 4 2 N 0 0,0
19.04.2018 02:00:00 9,4 5,9 0 0 9 5 N 0 -
19.04.2018 01:00:00 10,5 6,3 4 2 5 3 ESE 0 0,0
19.04.2018 00:00:00 11,7 6,6 0 0 4 2 N 0 0,0
18.04.2018 23:00:00 14,7 6,5 0 0 15 8 N 0 0,0
18.04.2018 22:00:00 18,5 4,6 8 4 13 7 ENE 0 0,0
18.04.2018 21:00:00 20,4 5,2 5 3 13 7 ENE 6 0,0
18.04.2018 20:00:00 22,6 5,9 4 2 15 8 NE 60 -
18.04.2018 19:00:00 24,5 5,8 8 4 26 14 NE 60 0,0
18.04.2018 18:00:00 25,3 5,5 11 6 31 17 ENE 60 0,0
18.04.2018 17:00:00 25,7 5,8 11 6 35 19 NE 60 0,0
18.04.2018 16:00:00 24,8 6,0 18 10 31 17 NNE 60 0,0
18.04.2018 15:00:00 24,9 2,9 15 8 34 18 NE 60 0,0
18.04.2018 14:00:00 24,1 5,4 15 8 37 20 NE 60 -
18.04.2018 13:00:00 23,2 3,2 13 7 37 20 NE 60 0,0
18.04.2018 12:00:00 22,4 7,0 15 8 29 16 NE 60 0,0
18.04.2018 11:00:00 19,4 8,7 11 6 18 10 NNE 60 0,0
18.04.2018 10:00:00 15,4 10,8 2 1 5 3 NNW 54 0,0
18.04.2018 09:00:00 10,7 8,8 0 0 4 2 N 36 0,0
18.04.2018 08:00:00 7,5 7,2 0 0 4 2 N 42 -
18.04.2018 07:00:00 5,1 4,8 0 0 4 2 N 0 0,0
18.04.2018 06:00:00 5,6 5,2 0 0 4 2 N 0 0,0
18.04.2018 05:00:00 6,3 5,9 0 0 4 2 N 0 0,0
18.04.2018 04:00:00 6,8 6,2 0 0 4 2 N 0 0,0
18.04.2018 03:00:00 7,4 6,7 0 0 4 2 N 0 0,0
18.04.2018 02:00:00 8,3 7,4 0 0 0 0 N 0 -
18.04.2018 01:00:00 9,1 7,7 0 0 4 2 N 0 0,0
18.04.2018 00:00:00 9,9 7,8 0 0 4 2 N 0 0,0
17.04.2018 23:00:00 11,8 8,3 2 1 4 2 ESE 0 0,0
17.04.2018 22:00:00 13,5 8,5 0 0 4 2 N 0 0,0
17.04.2018 21:00:00 16,1 9,1 0 0 15 8 N 0 0,0
17.04.2018 20:00:00 19,1 8,7 11 6 21 11 N 60 -
17.04.2018 19:00:00 20,8 9,1 15 8 22 12 NNW 60 0,0
17.04.2018 18:00:00 22,1 8,9 8 4 18 10 N 60 0,0
17.04.2018 17:00:00 22,5 8,2 8 4 28 15 N 60 0,0
17.04.2018 16:00:00 21,9 8,4 9 5 16 9 NW 60 0,0
17.04.2018 15:00:00 20,9 8,5 9 5 16 9 NNW 60 0,0
17.04.2018 14:00:00 20,2 7,9 8 4 15 8 NW 60 -
17.04.2018 13:00:00 19,1 6,9 8 4 15 8 WNW 60 0,0
17.04.2018 12:00:00 17,8 6,6 5 3 11 6 NNW 60 0,0
17.04.2018 11:00:00 15,4 8,6 4 2 9 5 NNW 60 0,0
17.04.2018 10:00:00 13,2 7,0 2 1 8 4 NNW 60 0,0
17.04.2018 09:00:00 9,3 6,6 0 0 4 2 N 42 0,0
17.04.2018 08:00:00 5,0 4,4 0 0 0 0 N 36 -
17.04.2018 07:00:00 3,0 2,7 0 0 8 4 N 0 0,0
17.04.2018 06:00:00 3,2 2,8 0 0 0 0 N 0 0,0
17.04.2018 05:00:00 3,4 3,0 0 0 0 0 N 0 0,0
17.04.2018 04:00:00 4,1 3,5 0 0 4 2 N 0 0,0

tt = Température de l'air
td = dewpoint
ff = Vitesse du vent
fx = gusts
dd = Direction du vent
sd = Ensoleillement
rr = Quantités de précipitations

stations d'obs. à proximité